sensor_id;sensor_type;location;lat;lon;timestamp;P1;durP1;ratioP1;P2;durP2;ratioP2
8532;SDS011;4304;53.876;10.662;2023-01-13T00:01:18;3.13;;;1.25;;
8532;SDS011;4304;53.876;10.662;2023-01-13T00:03:46;1.50;;;1.30;;
8532;SDS011;4304;53.876;10.662;2023-01-13T00:06:22;1.65;;;1.20;;
8532;SDS011;4304;53.876;10.662;2023-01-13T00:08:49;3.13;;;1.40;;
8532;SDS011;4304;53.876;10.662;2023-01-13T00:11:15;1.30;;;1.05;;
8532;SDS011;4304;53.876;10.662;2023-01-13T00:13:40;1.52;;;1.23;;
8532;SDS011;4304;53.876;10.662;2023-01-13T00:16:15;1.98;;;1.13;;
8532;SDS011;4304;53.876;10.662;2023-01-13T00:18:41;1.95;;;1.58;;
8532;SDS011;4304;53.876;10.662;2023-01-13T00:21:10;1.30;;;1.10;;
8532;SDS011;4304;53.876;10.662;2023-01-13T00:23:37;3.97;;;1.08;;
8532;SDS011;4304;53.876;10.662;2023-01-13T00:26:04;2.22;;;1.05;;
8532;SDS011;4304;53.876;10.662;2023-01-13T00:28:31;3.00;;;1.20;;
8532;SDS011;4304;53.876;10.662;2023-01-13T00:31:03;3.28;;;1.17;;
8532;SDS011;4304;53.876;10.662;2023-01-13T00:33:29;3.03;;;1.23;;
8532;SDS011;4304;53.876;10.662;2023-01-13T00:35:55;1.30;;;1.08;;
8532;SDS011;4304;53.876;10.662;2023-01-13T00:38:21;5.35;;;1.42;;
8532;SDS011;4304;53.876;10.662;2023-01-13T00:40:53;2.22;;;0.90;;
8532;SDS011;4304;53.876;10.662;2023-01-13T00:43:29;2.40;;;1.20;;
8532;SDS011;4304;53.876;10.662;2023-01-13T00:45:56;3.90;;;1.00;;
8532;SDS011;4304;53.876;10.662;2023-01-13T00:48:21;2.58;;;1.00;;
8532;SDS011;4304;53.876;10.662;2023-01-13T00:50:57;4.72;;;1.20;;
8532;SDS011;4304;53.876;10.662;2023-01-13T00:53:27;7.20;;;1.25;;
8532;SDS011;4304;53.876;10.662;2023-01-13T00:58:26;9.70;;;1.60;;
8532;SDS011;4304;53.876;10.662;2023-01-13T01:00:52;5.28;;;0.85;;
8532;SDS011;4304;53.876;10.662;2023-01-13T01:03:17;11.07;;;1.27;;
8532;SDS011;4304;53.876;10.662;2023-01-13T01:05:42;2.83;;;0.75;;
8532;SDS011;4304;53.876;10.662;2023-01-13T01:08:08;2.38;;;0.90;;
8532;SDS011;4304;53.876;10.662;2023-01-13T01:10:33;2.42;;;1.00;;
8532;SDS011;4304;53.876;10.662;2023-01-13T01:12:58;4.30;;;1.00;;
8532;SDS011;4304;53.876;10.662;2023-01-13T01:15:24;2.20;;;0.70;;
8532;SDS011;4304;53.876;10.662;2023-01-13T01:17:49;7.68;;;1.10;;
8532;SDS011;4304;53.876;10.662;2023-01-13T01:20:14;4.10;;;0.95;;
8532;SDS011;4304;53.876;10.662;2023-01-13T01:22:39;10.18;;;1.60;;
8532;SDS011;4304;53.876;10.662;2023-01-13T01:25:05;4.53;;;1.05;;
8532;SDS011;4304;53.876;10.662;2023-01-13T01:27:30;4.60;;;1.15;;
8532;SDS011;4304;53.876;10.662;2023-01-13T01:29:56;3.97;;;0.88;;
8532;SDS011;4304;53.876;10.662;2023-01-13T01:32:21;4.70;;;0.77;;
8532;SDS011;4304;53.876;10.662;2023-01-13T01:34:46;4.13;;;0.75;;
8532;SDS011;4304;53.876;10.662;2023-01-13T01:37:11;2.83;;;0.60;;
8532;SDS011;4304;53.876;10.662;2023-01-13T01:39:37;3.85;;;1.23;;
8532;SDS011;4304;53.876;10.662;2023-01-13T01:42:02;5.70;;;1.00;;
8532;SDS011;4304;53.876;10.662;2023-01-13T01:47:05;2.85;;;1.20;;
8532;SDS011;4304;53.876;10.662;2023-01-13T01:49:31;3.42;;;0.98;;
8532;SDS011;4304;53.876;10.662;2023-01-13T01:54:27;1.98;;;0.85;;
8532;SDS011;4304;53.876;10.662;2023-01-13T01:56:54;4.70;;;0.88;;
8532;SDS011;4304;53.876;10.662;2023-01-13T01:59:20;3.67;;;1.13;;
8532;SDS011;4304;53.876;10.662;2023-01-13T02:01:45;1.75;;;0.90;;
8532;SDS011;4304;53.876;10.662;2023-01-13T02:04:15;1.92;;;0.82;;
8532;SDS011;4304;53.876;10.662;2023-01-13T02:06:46;4.65;;;0.73;;
8532;SDS011;4304;53.876;10.662;2023-01-13T02:09:13;2.53;;;0.50;;
8532;SDS011;4304;53.876;10.662;2023-01-13T02:11:38;1.65;;;0.90;;
8532;SDS011;4304;53.876;10.662;2023-01-13T02:14:03;1.70;;;0.68;;
8532;SDS011;4304;53.876;10.662;2023-01-13T02:16:28;4.32;;;0.93;;
8532;SDS011;4304;53.876;10.662;2023-01-13T02:19:04;2.10;;;0.68;;
8532;SDS011;4304;53.876;10.662;2023-01-13T02:22:01;2.17;;;1.25;;
8532;SDS011;4304;53.876;10.662;2023-01-13T02:27:39;9.52;;;0.98;;
8532;SDS011;4304;53.876;10.662;2023-01-13T02:30:32;2.10;;;0.70;;
8532;SDS011;4304;53.876;10.662;2023-01-13T02:38:55;2.72;;;0.98;;
8532;SDS011;4304;53.876;10.662;2023-01-13T02:41:30;2.72;;;0.93;;
8532;SDS011;4304;53.876;10.662;2023-01-13T02:44:02;6.20;;;1.20;;
8532;SDS011;4304;53.876;10.662;2023-01-13T02:46:30;10.40;;;1.42;;
8532;SDS011;4304;53.876;10.662;2023-01-13T02:49:01;3.42;;;1.45;;
8532;SDS011;4304;53.876;10.662;2023-01-13T02:51:30;3.40;;;1.30;;
8532;SDS011;4304;53.876;10.662;2023-01-13T02:54:00;9.75;;;1.27;;
8532;SDS011;4304;53.876;10.662;2023-01-13T02:56:31;4.72;;;1.15;;
8532;SDS011;4304;53.876;10.662;2023-01-13T02:58:59;3.42;;;1.30;;
8532;SDS011;4304;53.876;10.662;2023-01-13T03:01:26;6.57;;;1.50;;
8532;SDS011;4304;53.876;10.662;2023-01-13T03:03:51;5.40;;;1.30;;
8532;SDS011;4304;53.876;10.662;2023-01-13T03:06:22;5.13;;;1.20;;
8532;SDS011;4304;53.876;10.662;2023-01-13T03:08:53;3.95;;;1.15;;
8532;SDS011;4304;53.876;10.662;2023-01-13T03:11:27;5.63;;;1.13;;
8532;SDS011;4304;53.876;10.662;2023-01-13T03:17:26;5.28;;;1.88;;
8532;SDS011;4304;53.876;10.662;2023-01-13T03:20:28;8.73;;;1.30;;
8532;SDS011;4304;53.876;10.662;2023-01-13T03:23:00;6.50;;;1.40;;
8532;SDS011;4304;53.876;10.662;2023-01-13T03:25:39;6.38;;;1.42;;
8532;SDS011;4304;53.876;10.662;2023-01-13T03:28:13;8.82;;;1.95;;
8532;SDS011;4304;53.876;10.662;2023-01-13T03:30:52;12.55;;;1.88;;
8532;SDS011;4304;53.876;10.662;2023-01-13T03:33:29;8.18;;;1.65;;
8532;SDS011;4304;53.876;10.662;2023-01-13T03:36:01;7.60;;;1.63;;
8532;SDS011;4304;53.876;10.662;2023-01-13T03:41:01;7.50;;;1.75;;
8532;SDS011;4304;53.876;10.662;2023-01-13T03:43:32;4.20;;;1.55;;
8532;SDS011;4304;53.876;10.662;2023-01-13T03:46:06;11.75;;;1.60;;
8532;SDS011;4304;53.876;10.662;2023-01-13T03:48:37;9.75;;;1.55;;
8532;SDS011;4304;53.876;10.662;2023-01-13T03:51:06;8.90;;;1.45;;
8532;SDS011;4304;53.876;10.662;2023-01-13T03:53:48;6.68;;;1.63;;
8532;SDS011;4304;53.876;10.662;2023-01-13T03:56:19;8.70;;;1.85;;
8532;SDS011;4304;53.876;10.662;2023-01-13T03:58:48;5.32;;;1.50;;
8532;SDS011;4304;53.876;10.662;2023-01-13T04:03:56;8.48;;;2.08;;
8532;SDS011;4304;53.876;10.662;2023-01-13T04:11:45;12.50;;;1.65;;
8532;SDS011;4304;53.876;10.662;2023-01-13T04:14:15;9.90;;;1.83;;
8532;SDS011;4304;53.876;10.662;2023-01-13T04:16:43;12.75;;;1.42;;
8532;SDS011;4304;53.876;10.662;2023-01-13T04:19:09;9.02;;;2.47;;
8532;SDS011;4304;53.876;10.662;2023-01-13T04:21:34;13.18;;;2.13;;
8532;SDS011;4304;53.876;10.662;2023-01-13T04:23:59;9.68;;;1.48;;
8532;SDS011;4304;53.876;10.662;2023-01-13T04:26:24;6.15;;;1.40;;
8532;SDS011;4304;53.876;10.662;2023-01-13T04:28:50;4.30;;;1.30;;
8532;SDS011;4304;53.876;10.662;2023-01-13T04:31:15;11.77;;;1.65;;
8532;SDS011;4304;53.876;10.662;2023-01-13T04:33:40;8.23;;;1.38;;
8532;SDS011;4304;53.876;10.662;2023-01-13T04:36:05;4.47;;;1.35;;
8532;SDS011;4304;53.876;10.662;2023-01-13T04:38:31;3.72;;;1.15;;
8532;SDS011;4304;53.876;10.662;2023-01-13T04:40:56;10.80;;;1.65;;
8532;SDS011;4304;53.876;10.662;2023-01-13T04:43:22;5.15;;;1.45;;
8532;SDS011;4304;53.876;10.662;2023-01-13T04:45:47;9.25;;;1.65;;
8532;SDS011;4304;53.876;10.662;2023-01-13T04:48:12;5.78;;;1.25;;
8532;SDS011;4304;53.876;10.662;2023-01-13T04:50:37;11.65;;;1.85;;
8532;SDS011;4304;53.876;10.662;2023-01-13T04:53:02;8.93;;;2.30;;
8532;SDS011;4304;53.876;10.662;2023-01-13T04:55:28;8.98;;;2.00;;
8532;SDS011;4304;53.876;10.662;2023-01-13T04:57:53;7.57;;;1.40;;
8532;SDS011;4304;53.876;10.662;2023-01-13T05:00:20;8.43;;;1.77;;
8532;SDS011;4304;53.876;10.662;2023-01-13T05:02:49;16.33;;;1.90;;
8532;SDS011;4304;53.876;10.662;2023-01-13T05:05:15;13.85;;;1.90;;
8532;SDS011;4304;53.876;10.662;2023-01-13T05:07:40;8.98;;;1.95;;
8532;SDS011;4304;53.876;10.662;2023-01-13T05:10:06;13.40;;;2.05;;
8532;SDS011;4304;53.876;10.662;2023-01-13T05:12:31;11.77;;;1.92;;
8532;SDS011;4304;53.876;10.662;2023-01-13T05:14:56;11.25;;;2.22;;
8532;SDS011;4304;53.876;10.662;2023-01-13T05:17:22;15.77;;;1.92;;
8532;SDS011;4304;53.876;10.662;2023-01-13T05:19:49;14.25;;;2.20;;
8532;SDS011;4304;53.876;10.662;2023-01-13T05:22:14;13.13;;;2.20;;
8532;SDS011;4304;53.876;10.662;2023-01-13T05:24:40;11.45;;;1.67;;
8532;SDS011;4304;53.876;10.662;2023-01-13T05:27:05;11.75;;;2.00;;
8532;SDS011;4304;53.876;10.662;2023-01-13T05:29:30;17.52;;;2.15;;
8532;SDS011;4304;53.876;10.662;2023-01-13T05:31:55;14.90;;;2.92;;
8532;SDS011;4304;53.876;10.662;2023-01-13T05:34:21;7.25;;;2.45;;
8532;SDS011;4304;53.876;10.662;2023-01-13T05:36:46;10.40;;;2.17;;
8532;SDS011;4304;53.876;10.662;2023-01-13T05:39:11;12.43;;;2.10;;
8532;SDS011;4304;53.876;10.662;2023-01-13T05:41:36;12.30;;;2.20;;
8532;SDS011;4304;53.876;10.662;2023-01-13T05:44:02;10.60;;;2.20;;
8532;SDS011;4304;53.876;10.662;2023-01-13T05:46:27;12.07;;;2.22;;
8532;SDS011;4304;53.876;10.662;2023-01-13T05:48:52;10.93;;;2.20;;
8532;SDS011;4304;53.876;10.662;2023-01-13T05:51:17;10.43;;;1.70;;
8532;SDS011;4304;53.876;10.662;2023-01-13T05:53:42;5.75;;;1.90;;
8532;SDS011;4304;53.876;10.662;2023-01-13T05:56:08;12.52;;;1.67;;
8532;SDS011;4304;53.876;10.662;2023-01-13T05:58:34;10.38;;;1.65;;
8532;SDS011;4304;53.876;10.662;2023-01-13T06:01:00;9.05;;;1.77;;
8532;SDS011;4304;53.876;10.662;2023-01-13T06:03:27;9.75;;;2.03;;
8532;SDS011;4304;53.876;10.662;2023-01-13T06:05:53;9.18;;;2.05;;
8532;SDS011;4304;53.876;10.662;2023-01-13T06:08:18;18.80;;;2.42;;
8532;SDS011;4304;53.876;10.662;2023-01-13T06:10:43;16.05;;;2.53;;
8532;SDS011;4304;53.876;10.662;2023-01-13T06:13:09;11.50;;;2.65;;
8532;SDS011;4304;53.876;10.662;2023-01-13T06:15:34;8.27;;;1.90;;
8532;SDS011;4304;53.876;10.662;2023-01-13T06:18:03;10.98;;;2.20;;
8532;SDS011;4304;53.876;10.662;2023-01-13T06:20:29;9.18;;;2.17;;
8532;SDS011;4304;53.876;10.662;2023-01-13T06:22:54;12.88;;;1.75;;
8532;SDS011;4304;53.876;10.662;2023-01-13T06:25:31;7.97;;;2.03;;
8532;SDS011;4304;53.876;10.662;2023-01-13T06:28:17;9.95;;;2.22;;
8532;SDS011;4304;53.876;10.662;2023-01-13T06:30:43;12.05;;;2.25;;
8532;SDS011;4304;53.876;10.662;2023-01-13T06:33:12;10.95;;;2.00;;
8532;SDS011;4304;53.876;10.662;2023-01-13T06:35:40;8.30;;;2.13;;
8532;SDS011;4304;53.876;10.662;2023-01-13T06:38:09;7.40;;;2.75;;
8532;SDS011;4304;53.876;10.662;2023-01-13T06:40:37;13.85;;;2.50;;
8532;SDS011;4304;53.876;10.662;2023-01-13T06:43:05;14.52;;;2.22;;
8532;SDS011;4304;53.876;10.662;2023-01-13T06:45:30;14.63;;;2.30;;
8532;SDS011;4304;53.876;10.662;2023-01-13T06:47:56;6.50;;;2.08;;
8532;SDS011;4304;53.876;10.662;2023-01-13T06:50:22;6.07;;;1.77;;
8532;SDS011;4304;53.876;10.662;2023-01-13T06:52:47;14.07;;;2.25;;
8532;SDS011;4304;53.876;10.662;2023-01-13T06:55:13;14.23;;;1.85;;
8532;SDS011;4304;53.876;10.662;2023-01-13T06:57:51;9.23;;;1.58;;
8532;SDS011;4304;53.876;10.662;2023-01-13T07:00:19;12.77;;;2.40;;
8532;SDS011;4304;53.876;10.662;2023-01-13T07:02:45;8.40;;;2.47;;
8532;SDS011;4304;53.876;10.662;2023-01-13T07:05:10;7.95;;;1.90;;
8532;SDS011;4304;53.876;10.662;2023-01-13T07:07:35;13.80;;;2.35;;
8532;SDS011;4304;53.876;10.662;2023-01-13T07:10:00;7.50;;;1.95;;
8532;SDS011;4304;53.876;10.662;2023-01-13T07:12:26;19.58;;;2.63;;
8532;SDS011;4304;53.876;10.662;2023-01-13T07:14:51;9.05;;;2.67;;
8532;SDS011;4304;53.876;10.662;2023-01-13T07:17:16;15.00;;;2.30;;
8532;SDS011;4304;53.876;10.662;2023-01-13T07:19:41;6.78;;;1.83;;
8532;SDS011;4304;53.876;10.662;2023-01-13T07:22:07;8.80;;;1.70;;
8532;SDS011;4304;53.876;10.662;2023-01-13T07:24:32;6.55;;;1.70;;
8532;SDS011;4304;53.876;10.662;2023-01-13T07:26:57;10.15;;;1.95;;
8532;SDS011;4304;53.876;10.662;2023-01-13T07:29:23;9.30;;;2.20;;
8532;SDS011;4304;53.876;10.662;2023-01-13T07:31:48;7.63;;;2.00;;
8532;SDS011;4304;53.876;10.662;2023-01-13T07:34:13;17.67;;;2.50;;
8532;SDS011;4304;53.876;10.662;2023-01-13T07:36:38;9.77;;;2.05;;
8532;SDS011;4304;53.876;10.662;2023-01-13T07:39:04;8.25;;;1.92;;
8532;SDS011;4304;53.876;10.662;2023-01-13T07:41:29;7.90;;;2.00;;
8532;SDS011;4304;53.876;10.662;2023-01-13T07:43:54;14.60;;;2.38;;
8532;SDS011;4304;53.876;10.662;2023-01-13T07:46:19;9.15;;;2.00;;
8532;SDS011;4304;53.876;10.662;2023-01-13T07:48:45;17.02;;;2.90;;
8532;SDS011;4304;53.876;10.662;2023-01-13T07:51:11;8.38;;;2.08;;
8532;SDS011;4304;53.876;10.662;2023-01-13T07:53:36;13.07;;;2.47;;
8532;SDS011;4304;53.876;10.662;2023-01-13T07:56:03;9.50;;;2.88;;
8532;SDS011;4304;53.876;10.662;2023-01-13T07:58:29;17.60;;;2.72;;
8532;SDS011;4304;53.876;10.662;2023-01-13T08:00:56;13.18;;;2.58;;
8532;SDS011;4304;53.876;10.662;2023-01-13T08:03:21;9.82;;;2.40;;
8532;SDS011;4304;53.876;10.662;2023-01-13T08:05:47;18.85;;;2.70;;
8532;SDS011;4304;53.876;10.662;2023-01-13T08:08:12;9.48;;;2.10;;
8532;SDS011;4304;53.876;10.662;2023-01-13T08:10:38;10.10;;;2.03;;
8532;SDS011;4304;53.876;10.662;2023-01-13T08:13:07;10.70;;;2.03;;
8532;SDS011;4304;53.876;10.662;2023-01-13T08:15:36;8.48;;;1.88;;
8532;SDS011;4304;53.876;10.662;2023-01-13T08:18:01;4.53;;;1.85;;
8532;SDS011;4304;53.876;10.662;2023-01-13T08:20:26;13.75;;;2.20;;
8532;SDS011;4304;53.876;10.662;2023-01-13T08:22:58;7.60;;;2.17;;
8532;SDS011;4304;53.876;10.662;2023-01-13T08:25:24;15.02;;;2.45;;
8532;SDS011;4304;53.876;10.662;2023-01-13T08:27:51;12.80;;;2.67;;
8532;SDS011;4304;53.876;10.662;2023-01-13T08:30:17;18.60;;;2.75;;
8532;SDS011;4304;53.876;10.662;2023-01-13T08:32:45;15.82;;;2.75;;
8532;SDS011;4304;53.876;10.662;2023-01-13T08:35:12;21.08;;;2.67;;
8532;SDS011;4304;53.876;10.662;2023-01-13T08:37:38;19.67;;;2.67;;
8532;SDS011;4304;53.876;10.662;2023-01-13T08:40:04;13.30;;;2.40;;
8532;SDS011;4304;53.876;10.662;2023-01-13T08:42:30;13.45;;;3.22;;
8532;SDS011;4304;53.876;10.662;2023-01-13T08:44:56;11.18;;;2.92;;
8532;SDS011;4304;53.876;10.662;2023-01-13T08:47:21;10.23;;;2.63;;
8532;SDS011;4304;53.876;10.662;2023-01-13T08:49:47;13.60;;;2.45;;
8532;SDS011;4304;53.876;10.662;2023-01-13T08:52:13;12.65;;;2.63;;
8532;SDS011;4304;53.876;10.662;2023-01-13T08:54:38;16.55;;;3.53;;
8532;SDS011;4304;53.876;10.662;2023-01-13T08:57:04;16.15;;;2.83;;
8532;SDS011;4304;53.876;10.662;2023-01-13T08:59:30;11.10;;;2.05;;
8532;SDS011;4304;53.876;10.662;2023-01-13T09:01:55;8.75;;;2.58;;
8532;SDS011;4304;53.876;10.662;2023-01-13T09:04:25;12.48;;;3.10;;
8532;SDS011;4304;53.876;10.662;2023-01-13T09:06:51;12.98;;;1.90;;
8532;SDS011;4304;53.876;10.662;2023-01-13T09:09:16;14.45;;;2.45;;
8532;SDS011;4304;53.876;10.662;2023-01-13T09:11:42;15.95;;;2.45;;
8532;SDS011;4304;53.876;10.662;2023-01-13T09:14:15;12.23;;;2.03;;
8532;SDS011;4304;53.876;10.662;2023-01-13T09:16:42;18.80;;;2.75;;
8532;SDS011;4304;53.876;10.662;2023-01-13T09:19:07;7.25;;;2.67;;
8532;SDS011;4304;53.876;10.662;2023-01-13T09:21:33;8.38;;;1.88;;
8532;SDS011;4304;53.876;10.662;2023-01-13T09:23:58;11.52;;;2.28;;
8532;SDS011;4304;53.876;10.662;2023-01-13T09:26:23;10.68;;;2.00;;
8532;SDS011;4304;53.876;10.662;2023-01-13T09:28:48;10.23;;;2.70;;
8532;SDS011;4304;53.876;10.662;2023-01-13T09:31:14;15.07;;;2.08;;
8532;SDS011;4304;53.876;10.662;2023-01-13T09:33:39;9.32;;;1.95;;
8532;SDS011;4304;53.876;10.662;2023-01-13T09:36:04;12.93;;;2.40;;
8532;SDS011;4304;53.876;10.662;2023-01-13T09:38:30;12.20;;;2.25;;
8532;SDS011;4304;53.876;10.662;2023-01-13T09:40:55;10.10;;;2.22;;
8532;SDS011;4304;53.876;10.662;2023-01-13T09:43:38;6.60;;;1.90;;
8532;SDS011;4304;53.876;10.662;2023-01-13T09:46:06;17.33;;;2.42;;
8532;SDS011;4304;53.876;10.662;2023-01-13T09:48:38;9.77;;;2.10;;
8532;SDS011;4304;53.876;10.662;2023-01-13T09:56:30;13.02;;;2.30;;
8532;SDS011;4304;53.876;10.662;2023-01-13T09:58:55;11.43;;;2.35;;
8532;SDS011;4304;53.876;10.662;2023-01-13T10:01:39;8.63;;;1.90;;
8532;SDS011;4304;53.876;10.662;2023-01-13T10:04:09;10.05;;;1.80;;
8532;SDS011;4304;53.876;10.662;2023-01-13T10:06:37;10.32;;;1.90;;
8532;SDS011;4304;53.876;10.662;2023-01-13T10:09:04;13.60;;;2.67;;
8532;SDS011;4304;53.876;10.662;2023-01-13T10:11:35;9.02;;;1.63;;
8532;SDS011;4304;53.876;10.662;2023-01-13T10:16:44;6.93;;;1.85;;
8532;SDS011;4304;53.876;10.662;2023-01-13T10:19:16;10.68;;;1.55;;
8532;SDS011;4304;53.876;10.662;2023-01-13T10:27:14;8.95;;;1.30;;
8532;SDS011;4304;53.876;10.662;2023-01-13T10:29:48;16.40;;;2.03;;
8532;SDS011;4304;53.876;10.662;2023-01-13T10:32:13;7.05;;;1.70;;
8532;SDS011;4304;53.876;10.662;2023-01-13T10:34:45;7.13;;;2.10;;
8532;SDS011;4304;53.876;10.662;2023-01-13T10:37:18;7.20;;;1.48;;
8532;SDS011;4304;53.876;10.662;2023-01-13T10:39:46;7.22;;;1.65;;
8532;SDS011;4304;53.876;10.662;2023-01-13T10:42:14;7.10;;;1.38;;
8532;SDS011;4304;53.876;10.662;2023-01-13T10:44:48;9.82;;;1.85;;
8532;SDS011;4304;53.876;10.662;2023-01-13T10:47:18;7.97;;;1.40;;
8532;SDS011;4304;53.876;10.662;2023-01-13T10:52:25;8.75;;;1.85;;
8532;SDS011;4304;53.876;10.662;2023-01-13T10:54:52;11.27;;;1.95;;
8532;SDS011;4304;53.876;10.662;2023-01-13T10:57:21;11.30;;;2.15;;
8532;SDS011;4304;53.876;10.662;2023-01-13T10:59:47;10.05;;;1.83;;
8532;SDS011;4304;53.876;10.662;2023-01-13T11:02:16;7.88;;;1.75;;
8532;SDS011;4304;53.876;10.662;2023-01-13T11:10:28;9.25;;;1.67;;
8532;SDS011;4304;53.876;10.662;2023-01-13T11:21:25;4.63;;;1.17;;
8532;SDS011;4304;53.876;10.662;2023-01-13T11:23:59;4.18;;;1.50;;
8532;SDS011;4304;53.876;10.662;2023-01-13T11:26:38;3.28;;;1.40;;
8532;SDS011;4304;53.876;10.662;2023-01-13T11:29:13;7.07;;;1.45;;
8532;SDS011;4304;53.876;10.662;2023-01-13T11:31:48;9.85;;;1.52;;
8532;SDS011;4304;53.876;10.662;2023-01-13T11:34:32;17.40;;;5.18;;
8532;SDS011;4304;53.876;10.662;2023-01-13T11:37:00;6.82;;;1.58;;
8532;SDS011;4304;53.876;10.662;2023-01-13T11:47:39;6.25;;;1.42;;
8532;SDS011;4304;53.876;10.662;2023-01-13T11:50:11;4.65;;;1.50;;
8532;SDS011;4304;53.876;10.662;2023-01-13T11:57:59;9.00;;;1.23;;
8532;SDS011;4304;53.876;10.662;2023-01-13T12:06:12;4.22;;;1.70;;
8532;SDS011;4304;53.876;10.662;2023-01-13T12:14:08;5.75;;;1.85;;
8532;SDS011;4304;53.876;10.662;2023-01-13T12:16:46;7.38;;;1.60;;
8532;SDS011;4304;53.876;10.662;2023-01-13T12:19:23;10.20;;;1.67;;
8532;SDS011;4304;53.876;10.662;2023-01-13T12:27:46;9.95;;;1.70;;
8532;SDS011;4304;53.876;10.662;2023-01-13T12:33:19;5.88;;;1.58;;
8532;SDS011;4304;53.876;10.662;2023-01-13T12:35:58;8.15;;;1.50;;
8532;SDS011;4304;53.876;10.662;2023-01-13T12:38:32;10.63;;;1.80;;
8532;SDS011;4304;53.876;10.662;2023-01-13T12:43:31;8.10;;;1.40;;
8532;SDS011;4304;53.876;10.662;2023-01-13T12:48:45;4.15;;;1.65;;
8532;SDS011;4304;53.876;10.662;2023-01-13T12:54:30;5.38;;;1.52;;
8532;SDS011;4304;53.876;10.662;2023-01-13T12:57:04;5.75;;;1.40;;
8532;SDS011;4304;53.876;10.662;2023-01-13T12:59:44;6.05;;;1.70;;
8532;SDS011;4304;53.876;10.662;2023-01-13T13:02:39;5.10;;;1.25;;
8532;SDS011;4304;53.876;10.662;2023-01-13T13:07:59;4.63;;;1.40;;
8532;SDS011;4304;53.876;10.662;2023-01-13T13:10:55;6.07;;;1.65;;
8532;SDS011;4304;53.876;10.662;2023-01-13T13:13:46;4.72;;;1.60;;
8532;SDS011;4304;53.876;10.662;2023-01-13T13:16:56;6.10;;;1.50;;
8532;SDS011;4304;53.876;10.662;2023-01-13T13:24:41;7.88;;;1.98;;
8532;SDS011;4304;53.876;10.662;2023-01-13T13:30:00;10.52;;;1.55;;
8532;SDS011;4304;53.876;10.662;2023-01-13T13:40:44;7.43;;;1.70;;
8532;SDS011;4304;53.876;10.662;2023-01-13T13:43:11;5.72;;;1.60;;
8532;SDS011;4304;53.876;10.662;2023-01-13T13:45:47;7.35;;;1.70;;
8532;SDS011;4304;53.876;10.662;2023-01-13T13:48:24;7.15;;;1.80;;
8532;SDS011;4304;53.876;10.662;2023-01-13T13:50:54;1.88;;;1.25;;
8532;SDS011;4304;53.876;10.662;2023-01-13T13:53:22;6.40;;;1.67;;
8532;SDS011;4304;53.876;10.662;2023-01-13T13:55:54;6.30;;;1.80;;
8532;SDS011;4304;53.876;10.662;2023-01-13T13:58:21;5.15;;;1.60;;
8532;SDS011;4304;53.876;10.662;2023-01-13T14:00:47;6.75;;;1.50;;
8532;SDS011;4304;53.876;10.662;2023-01-13T14:06:00;5.20;;;1.88;;
8532;SDS011;4304;53.876;10.662;2023-01-13T14:08:27;4.10;;;1.38;;
8532;SDS011;4304;53.876;10.662;2023-01-13T14:10:55;6.00;;;1.70;;
8532;SDS011;4304;53.876;10.662;2023-01-13T14:13:24;6.25;;;1.75;;
8532;SDS011;4304;53.876;10.662;2023-01-13T14:15:55;5.75;;;1.60;;
8532;SDS011;4304;53.876;10.662;2023-01-13T14:18:22;7.50;;;1.45;;
8532;SDS011;4304;53.876;10.662;2023-01-13T14:20:59;4.45;;;1.10;;
8532;SDS011;4304;53.876;10.662;2023-01-13T14:23:28;5.40;;;1.92;;
8532;SDS011;4304;53.876;10.662;2023-01-13T14:26:00;8.55;;;1.45;;
8532;SDS011;4304;53.876;10.662;2023-01-13T14:28:28;6.82;;;1.30;;
8532;SDS011;4304;53.876;10.662;2023-01-13T14:30:58;8.68;;;1.52;;
8532;SDS011;4304;53.876;10.662;2023-01-13T14:33:42;3.55;;;1.25;;
8532;SDS011;4304;53.876;10.662;2023-01-13T14:49:14;6.32;;;1.40;;
8532;SDS011;4304;53.876;10.662;2023-01-13T14:51:43;5.05;;;1.40;;
8532;SDS011;4304;53.876;10.662;2023-01-13T15:07:51;3.75;;;1.38;;
8532;SDS011;4304;53.876;10.662;2023-01-13T15:10:24;8.35;;;1.83;;
8532;SDS011;4304;53.876;10.662;2023-01-13T15:12:58;3.70;;;1.33;;
8532;SDS011;4304;53.876;10.662;2023-01-13T15:15:35;6.80;;;1.60;;
8532;SDS011;4304;53.876;10.662;2023-01-13T15:18:13;3.53;;;1.20;;
8532;SDS011;4304;53.876;10.662;2023-01-13T15:20:40;4.55;;;1.58;;
8532;SDS011;4304;53.876;10.662;2023-01-13T15:23:06;7.32;;;1.60;;
8532;SDS011;4304;53.876;10.662;2023-01-13T15:25:35;4.03;;;1.38;;
8532;SDS011;4304;53.876;10.662;2023-01-13T15:28:02;5.28;;;1.40;;
8532;SDS011;4304;53.876;10.662;2023-01-13T15:30:28;6.50;;;1.10;;
8532;SDS011;4304;53.876;10.662;2023-01-13T15:32:55;5.78;;;1.38;;
8532;SDS011;4304;53.876;10.662;2023-01-13T15:35:22;4.00;;;1.42;;
8532;SDS011;4304;53.876;10.662;2023-01-13T15:37:50;3.60;;;1.23;;
8532;SDS011;4304;53.876;10.662;2023-01-13T15:40:17;3.63;;;1.42;;
8532;SDS011;4304;53.876;10.662;2023-01-13T15:43:03;5.47;;;1.23;;
8532;SDS011;4304;53.876;10.662;2023-01-13T15:45:28;3.88;;;1.30;;
8532;SDS011;4304;53.876;10.662;2023-01-13T15:47:54;3.88;;;1.23;;
8532;SDS011;4304;53.876;10.662;2023-01-13T15:50:19;5.13;;;1.58;;
8532;SDS011;4304;53.876;10.662;2023-01-13T15:52:45;5.25;;;1.73;;
8532;SDS011;4304;53.876;10.662;2023-01-13T15:55:10;3.00;;;1.38;;
8532;SDS011;4304;53.876;10.662;2023-01-13T15:57:36;6.07;;;1.25;;
8532;SDS011;4304;53.876;10.662;2023-01-13T16:00:04;2.53;;;1.02;;
8532;SDS011;4304;53.876;10.662;2023-01-13T16:02:35;5.25;;;0.95;;
8532;SDS011;4304;53.876;10.662;2023-01-13T16:05:01;3.17;;;1.20;;
8532;SDS011;4304;53.876;10.662;2023-01-13T16:07:26;3.13;;;1.10;;
8532;SDS011;4304;53.876;10.662;2023-01-13T16:09:51;6.80;;;1.20;;
8532;SDS011;4304;53.876;10.662;2023-01-13T16:12:17;4.97;;;1.50;;
8532;SDS011;4304;53.876;10.662;2023-01-13T16:14:42;3.25;;;1.20;;
8532;SDS011;4304;53.876;10.662;2023-01-13T16:17:17;3.47;;;1.23;;
8532;SDS011;4304;53.876;10.662;2023-01-13T16:19:44;4.45;;;1.25;;
8532;SDS011;4304;53.876;10.662;2023-01-13T16:22:10;5.75;;;1.15;;
8532;SDS011;4304;53.876;10.662;2023-01-13T16:24:36;9.27;;;1.45;;
8532;SDS011;4304;53.876;10.662;2023-01-13T16:27:03;0.75;;;0.63;;
8532;SDS011;4304;53.876;10.662;2023-01-13T16:29:35;2.70;;;0.82;;
8532;SDS011;4304;53.876;10.662;2023-01-13T16:32:00;3.78;;;1.23;;
8532;SDS011;4304;53.876;10.662;2023-01-13T16:34:25;5.43;;;1.13;;
8532;SDS011;4304;53.876;10.662;2023-01-13T16:36:50;1.40;;;0.90;;
8532;SDS011;4304;53.876;10.662;2023-01-13T16:39:19;5.93;;;1.13;;
8532;SDS011;4304;53.876;10.662;2023-01-13T16:41:46;3.42;;;1.30;;
8532;SDS011;4304;53.876;10.662;2023-01-13T16:44:11;3.45;;;1.05;;
8532;SDS011;4304;53.876;10.662;2023-01-13T16:46:37;1.42;;;0.70;;
8532;SDS011;4304;53.876;10.662;2023-01-13T16:49:03;2.35;;;1.13;;
8532;SDS011;4304;53.876;10.662;2023-01-13T16:51:29;6.90;;;1.20;;
8532;SDS011;4304;53.876;10.662;2023-01-13T16:53:54;4.05;;;0.98;;
8532;SDS011;4304;53.876;10.662;2023-01-13T16:56:21;1.45;;;0.80;;
8532;SDS011;4304;53.876;10.662;2023-01-13T16:58:47;4.63;;;1.38;;
8532;SDS011;4304;53.876;10.662;2023-01-13T17:01:45;3.17;;;1.00;;
8532;SDS011;4304;53.876;10.662;2023-01-13T17:04:05;1.40;;;0.88;;
8532;SDS011;4304;53.876;10.662;2023-01-13T17:06:34;3.17;;;0.80;;
8532;SDS011;4304;53.876;10.662;2023-01-13T17:09:05;1.33;;;0.77;;
8532;SDS011;4304;53.876;10.662;2023-01-13T17:11:32;4.07;;;0.90;;
8532;SDS011;4304;53.876;10.662;2023-01-13T17:13:57;2.13;;;1.05;;
8532;SDS011;4304;53.876;10.662;2023-01-13T17:16:23;1.45;;;1.00;;
8532;SDS011;4304;53.876;10.662;2023-01-13T17:18:49;1.02;;;0.77;;
8532;SDS011;4304;53.876;10.662;2023-01-13T17:21:14;2.20;;;0.90;;
8532;SDS011;4304;53.876;10.662;2023-01-13T17:23:40;5.72;;;1.20;;
8532;SDS011;4304;53.876;10.662;2023-01-13T17:26:05;2.35;;;1.02;;
8532;SDS011;4304;53.876;10.662;2023-01-13T17:28:31;4.80;;;0.93;;
8532;SDS011;4304;53.876;10.662;2023-01-13T17:30:56;5.25;;;1.15;;
8532;SDS011;4304;53.876;10.662;2023-01-13T17:33:21;3.33;;;1.08;;
8532;SDS011;4304;53.876;10.662;2023-01-13T17:35:46;4.78;;;1.40;;
8532;SDS011;4304;53.876;10.662;2023-01-13T17:38:12;4.07;;;1.45;;